createdAt,value
2022-12-19T00:01:19.534Z,8.75
2022-12-19T00:04:12.013Z,9.00
2022-12-19T00:07:01.971Z,8.82
2022-12-19T00:09:51.422Z,9.30
2022-12-19T00:12:40.806Z,8.40
2022-12-19T00:15:30.344Z,9.25
2022-12-19T00:18:20.031Z,9.43
2022-12-19T00:21:11.749Z,9.02
2022-12-19T00:24:01.709Z,9.35
2022-12-19T00:26:51.412Z,9.50
2022-12-19T00:29:40.659Z,9.32
2022-12-19T00:32:30.484Z,10.35
2022-12-19T00:35:19.811Z,10.50
2022-12-19T00:38:09.183Z,11.10
2022-12-19T00:41:09.210Z,10.70
2022-12-19T00:44:05.584Z,10.07
2022-12-19T00:46:56.430Z,9.80
2022-12-19T00:49:45.862Z,9.43
2022-12-19T00:52:39.597Z,9.40
2022-12-19T00:55:28.982Z,9.02
2022-12-19T00:58:18.293Z,8.50
2022-12-19T01:01:10.886Z,8.95
2022-12-19T01:07:11.702Z,8.75
2022-12-19T01:10:01.063Z,9.10
2022-12-19T01:12:50.827Z,9.02
2022-12-19T01:15:42.313Z,8.18
2022-12-19T01:18:32.104Z,8.70
2022-12-19T01:21:21.547Z,8.75
2022-12-19T01:24:19.181Z,9.07
2022-12-19T01:27:11.651Z,9.40
2022-12-19T01:30:01.513Z,9.40
2022-12-19T01:32:50.989Z,10.00
2022-12-19T01:35:41.561Z,9.30
2022-12-19T01:38:33.099Z,9.25
2022-12-19T01:41:23.739Z,9.35
2022-12-19T01:44:15.693Z,8.70
2022-12-19T01:47:05.629Z,8.95
2022-12-19T01:49:55.390Z,8.77
2022-12-19T01:52:44.953Z,9.02
2022-12-19T01:55:35.455Z,9.30
2022-12-19T01:58:25.311Z,9.27
2022-12-19T02:01:16.730Z,9.13
2022-12-19T02:04:07.512Z,8.48
2022-12-19T02:06:58.961Z,9.27
2022-12-19T02:09:56.820Z,8.90
2022-12-19T02:12:56.039Z,8.68
2022-12-19T02:16:30.074Z,9.15
2022-12-19T02:19:50.721Z,9.30
2022-12-19T02:23:28.627Z,8.90
2022-12-19T02:26:39.411Z,8.15
2022-12-19T02:29:51.972Z,8.50
2022-12-19T02:33:11.397Z,8.82
2022-12-19T02:36:16.697Z,8.52
2022-12-19T02:39:33.709Z,8.57
2022-12-19T02:42:32.327Z,8.38
2022-12-19T02:45:28.734Z,10.00
2022-12-19T02:48:20.810Z,9.02
2022-12-19T02:51:13.376Z,9.35
2022-12-19T02:54:02.984Z,9.38
2022-12-19T02:57:08.661Z,8.98
2022-12-19T03:00:07.605Z,9.30
2022-12-19T03:03:16.764Z,8.82
2022-12-19T03:06:33.360Z,9.23
2022-12-19T03:09:47.467Z,8.73
2022-12-19T03:12:51.636Z,8.85
2022-12-19T03:15:43.401Z,8.32
2022-12-19T03:18:35.224Z,8.32
2022-12-19T03:21:35.667Z,8.20
2022-12-19T03:24:25.702Z,9.02
2022-12-19T03:27:29.367Z,8.10
2022-12-19T03:30:18.909Z,9.25
2022-12-19T03:33:11.331Z,9.43
2022-12-19T03:36:05.382Z,8.18
2022-12-19T03:38:58.475Z,9.13
2022-12-19T03:42:07.588Z,8.80
2022-12-19T03:44:58.936Z,9.63
2022-12-19T03:47:59.585Z,8.93
2022-12-19T03:51:09.181Z,9.77
2022-12-19T03:54:39.063Z,8.77
2022-12-19T03:57:37.266Z,8.60
2022-12-19T04:00:28.167Z,8.65
2022-12-19T04:03:22.313Z,9.02
2022-12-19T04:06:12.797Z,8.88
2022-12-19T04:09:03.662Z,8.73
2022-12-19T04:12:01.883Z,8.23
2022-12-19T04:14:52.021Z,8.85
2022-12-19T04:17:55.645Z,8.23
2022-12-19T04:20:52.000Z,8.27
2022-12-19T04:23:50.476Z,8.65
2022-12-19T04:26:43.432Z,8.32
2022-12-19T04:29:35.637Z,7.45
2022-12-19T04:32:26.824Z,8.95
2022-12-19T04:35:16.604Z,7.82
2022-12-19T04:38:06.620Z,8.23
2022-12-19T04:40:58.051Z,7.90
2022-12-19T04:43:47.639Z,8.68
2022-12-19T04:46:36.983Z,8.15
2022-12-19T04:49:26.516Z,8.15
2022-12-19T04:52:16.031Z,8.13
2022-12-19T04:55:05.700Z,8.30
2022-12-19T04:57:55.021Z,7.55
2022-12-19T05:00:44.452Z,8.70
2022-12-19T05:03:34.589Z,8.55
2022-12-19T05:06:24.734Z,8.50
2022-12-19T05:09:14.243Z,8.93
2022-12-19T05:12:03.855Z,8.55
2022-12-19T05:14:53.267Z,7.72
2022-12-19T05:17:42.606Z,7.85
2022-12-19T05:20:31.950Z,7.93
2022-12-19T05:23:21.988Z,8.00
2022-12-19T05:26:13.595Z,8.68
2022-12-19T05:29:03.100Z,7.70
2022-12-19T05:31:52.594Z,8.45
2022-12-19T05:34:41.996Z,7.95
2022-12-19T05:37:31.586Z,7.68
2022-12-19T05:40:21.347Z,8.35
2022-12-19T05:43:10.763Z,7.63
2022-12-19T05:46:00.256Z,7.82
2022-12-19T05:48:50.043Z,7.72
2022-12-19T05:51:39.535Z,8.23
2022-12-19T05:54:29.398Z,8.43
2022-12-19T05:57:19.063Z,8.68
2022-12-19T06:00:09.110Z,8.68
2022-12-19T06:03:01.343Z,8.20
2022-12-19T06:05:50.670Z,7.95
2022-12-19T06:08:40.077Z,8.73
2022-12-19T06:11:29.646Z,8.50
2022-12-19T06:14:19.160Z,9.30
2022-12-19T06:17:08.497Z,9.02
2022-12-19T06:19:57.824Z,8.43
2022-12-19T06:22:47.423Z,8.75
2022-12-19T06:25:36.880Z,8.98
2022-12-19T06:28:27.824Z,8.73
2022-12-19T06:31:17.962Z,7.93
2022-12-19T06:34:07.421Z,7.75
2022-12-19T06:36:56.847Z,9.65
2022-12-19T06:39:46.427Z,7.88
2022-12-19T06:42:35.751Z,9.13
2022-12-19T06:45:25.565Z,7.93
2022-12-19T06:48:15.312Z,8.52
2022-12-19T06:51:04.745Z,7.93
2022-12-19T06:53:55.222Z,7.95
2022-12-19T06:56:45.549Z,8.13
2022-12-19T06:59:35.221Z,7.75
2022-12-19T07:02:31.005Z,8.18
2022-12-19T07:05:21.021Z,7.97
2022-12-19T07:08:11.868Z,8.50
2022-12-19T07:11:01.593Z,8.25
2022-12-19T07:13:50.912Z,8.20
2022-12-19T07:16:41.222Z,7.75
2022-12-19T07:19:33.123Z,8.65
2022-12-19T07:22:23.229Z,8.00
2022-12-19T07:25:13.148Z,7.97
2022-12-19T07:28:02.931Z,8.32
2022-12-19T07:30:52.270Z,8.18
2022-12-19T07:33:46.180Z,7.55
2022-12-19T07:36:35.745Z,7.95
2022-12-19T07:39:25.000Z,8.48
2022-12-19T07:42:14.482Z,8.40
2022-12-19T07:45:04.075Z,7.95
2022-12-19T07:47:53.869Z,8.57
2022-12-19T07:50:43.595Z,8.20
2022-12-19T07:53:33.455Z,7.95
2022-12-19T07:56:23.203Z,7.97
2022-12-19T07:59:14.271Z,7.90
2022-12-19T08:02:04.220Z,7.65
2022-12-19T08:04:54.132Z,8.05
2022-12-19T08:07:43.764Z,8.23
2022-12-19T08:10:33.528Z,8.10
2022-12-19T08:13:22.795Z,7.88
2022-12-19T08:16:12.842Z,7.75
2022-12-19T08:19:02.242Z,8.57
2022-12-19T08:21:51.755Z,7.97
2022-12-19T08:24:41.096Z,7.63
2022-12-19T08:27:30.912Z,7.40
2022-12-19T08:30:20.185Z,7.50
2022-12-19T08:33:09.864Z,8.10
2022-12-19T08:35:59.307Z,8.57
2022-12-19T08:38:50.188Z,8.48
2022-12-19T08:41:39.551Z,7.88
2022-12-19T08:44:28.971Z,7.57
2022-12-19T08:47:18.894Z,7.97
2022-12-19T08:50:09.035Z,7.78
2022-12-19T08:52:58.530Z,8.15
2022-12-19T08:55:50.168Z,8.02
2022-12-19T08:58:39.914Z,7.68
2022-12-19T09:01:29.943Z,7.55
2022-12-19T09:05:41.421Z,7.45
2022-12-19T09:07:28.756Z,7.63
2022-12-19T09:10:18.112Z,7.57
2022-12-19T09:13:09.875Z,7.72
2022-12-19T09:16:04.694Z,7.40
2022-12-19T09:18:58.196Z,7.78
2022-12-19T09:21:48.267Z,7.45
2022-12-19T09:24:37.780Z,7.57
2022-12-19T09:27:27.119Z,7.22
2022-12-19T09:30:17.836Z,7.40
2022-12-19T09:33:07.194Z,7.28
2022-12-19T09:35:57.947Z,7.97
2022-12-19T09:38:48.146Z,7.38
2022-12-19T09:41:55.986Z,7.80
2022-12-19T09:45:05.320Z,7.13
2022-12-19T09:48:00.127Z,7.60
2022-12-19T09:51:10.081Z,7.82
2022-12-19T09:54:38.461Z,6.55
2022-12-19T09:57:54.623Z,7.78
2022-12-19T10:00:48.928Z,7.10
2022-12-19T10:03:55.447Z,6.82
2022-12-19T10:07:13.393Z,7.88
2022-12-19T10:10:40.828Z,7.30
2022-12-19T10:13:22.409Z,7.38
2022-12-19T10:16:52.121Z,7.15
2022-12-19T10:20:30.982Z,7.60
2022-12-19T10:23:52.409Z,7.38
2022-12-19T10:26:54.573Z,7.47
2022-12-19T10:30:15.599Z,7.00
2022-12-19T10:33:27.850Z,7.45
2022-12-19T10:36:17.423Z,6.70
2022-12-19T10:39:45.500Z,7.60
2022-12-19T10:42:50.847Z,7.93
2022-12-19T10:45:47.049Z,7.40
2022-12-19T10:48:36.936Z,7.25
2022-12-19T10:51:31.395Z,7.03
2022-12-19T10:54:20.868Z,7.07
2022-12-19T10:57:30.761Z,7.25
2022-12-19T11:00:21.145Z,6.97
2022-12-19T11:03:19.051Z,7.43
2022-12-19T11:06:28.523Z,7.32
2022-12-19T11:09:24.613Z,8.15
2022-12-19T11:16:54.616Z,7.55
2022-12-19T11:22:05.551Z,7.68
2022-12-19T11:29:19.208Z,7.18
2022-12-19T11:29:36.497Z,7.53
2022-12-19T11:30:38.740Z,7.55
2022-12-19T11:30:47.825Z,7.45
2022-12-19T11:32:38.417Z,7.22
2022-12-19T11:35:06.809Z,7.55
2022-12-19T11:38:00.318Z,7.03
2022-12-19T11:44:04.548Z,6.63
2022-12-19T11:47:20.869Z,7.15
2022-12-19T11:50:28.548Z,7.28
2022-12-19T11:53:35.947Z,7.85
2022-12-19T11:56:28.899Z,7.00
2022-12-19T11:59:26.592Z,7.50
2022-12-19T12:02:31.005Z,7.93
2022-12-19T12:05:38.939Z,8.05
2022-12-19T12:09:58.873Z,7.40
2022-12-19T12:20:57.685Z,7.65
2022-12-19T12:26:25.085Z,7.85
2022-12-19T12:31:21.107Z,7.65
2022-12-19T12:31:22.092Z,6.97
2022-12-19T12:31:47.316Z,7.43
2022-12-19T12:31:53.912Z,7.47
2022-12-19T12:35:28.680Z,7.35
2022-12-19T12:38:09.098Z,7.07
2022-12-19T12:40:26.346Z,6.82
2022-12-19T12:43:27.952Z,7.68
2022-12-19T12:46:32.975Z,7.68
2022-12-19T12:49:42.512Z,7.43
2022-12-19T12:52:45.188Z,7.75
2022-12-19T12:55:45.458Z,7.88
2022-12-19T12:58:54.332Z,7.18
2022-12-19T13:01:44.207Z,7.25
2022-12-19T13:04:36.890Z,7.50
2022-12-19T13:07:55.908Z,7.60
2022-12-19T13:10:56.794Z,7.63
2022-12-19T13:13:59.951Z,7.38
2022-12-19T13:16:54.440Z,7.15
2022-12-19T13:20:18.868Z,7.20
2022-12-19T13:26:24.843Z,7.18
2022-12-19T13:29:31.550Z,7.57
2022-12-19T13:32:23.008Z,7.85
2022-12-19T13:36:11.607Z,7.45
2022-12-19T13:39:55.756Z,7.30
2022-12-19T13:42:00.857Z,8.18
2022-12-19T13:44:52.535Z,8.20
2022-12-19T13:47:45.826Z,7.47
2022-12-19T13:50:39.792Z,8.05
2022-12-19T13:53:31.426Z,7.05
2022-12-19T13:56:22.029Z,7.32
2022-12-19T13:59:11.793Z,7.68
2022-12-19T14:02:09.838Z,7.15
2022-12-19T14:04:59.963Z,7.57
2022-12-19T14:07:50.664Z,7.65
2022-12-19T14:11:31.385Z,7.57
2022-12-19T14:14:23.802Z,7.35
2022-12-19T14:17:23.148Z,7.47
2022-12-19T14:22:07.201Z,7.43
2022-12-19T14:23:43.001Z,7.35
2022-12-19T14:28:24.526Z,7.85
2022-12-19T14:30:30.733Z,8.32
2022-12-19T14:33:53.580Z,7.72
2022-12-19T14:36:17.445Z,7.28
2022-12-19T14:39:25.839Z,7.55
2022-12-19T14:44:00.111Z,7.32
2022-12-19T14:52:08.330Z,6.90
2022-12-19T14:54:16.484Z,7.90
2022-12-19T14:54:31.035Z,7.43
2022-12-19T14:56:13.605Z,7.22
2022-12-19T14:58:59.942Z,7.97
2022-12-19T15:01:59.530Z,8.05
2022-12-19T15:05:01.672Z,7.85
2022-12-19T15:07:57.162Z,7.03
2022-12-19T15:11:03.347Z,7.40
2022-12-19T15:14:56.371Z,7.70
2022-12-19T15:17:23.094Z,7.40
2022-12-19T15:20:12.731Z,7.15
2022-12-19T15:23:02.326Z,7.22
2022-12-19T15:26:08.674Z,7.68
2022-12-19T15:28:59.628Z,8.30
2022-12-19T15:31:49.414Z,7.25
2022-12-19T15:34:50.698Z,7.75
2022-12-19T15:37:41.083Z,7.90
2022-12-19T15:40:30.564Z,7.65
2022-12-19T15:44:01.222Z,7.53
2022-12-19T15:46:32.899Z,6.90
2022-12-19T15:49:23.610Z,7.32
2022-12-19T15:52:20.678Z,7.25
2022-12-19T15:55:15.888Z,7.35
2022-12-19T15:58:07.506Z,7.05
2022-12-19T16:01:01.427Z,7.57
2022-12-19T16:03:51.455Z,6.95
2022-12-19T16:06:41.476Z,7.60
2022-12-19T16:09:30.774Z,7.50
2022-12-19T16:12:32.980Z,7.38
2022-12-19T16:15:32.800Z,7.03
2022-12-19T16:18:22.819Z,7.75
2022-12-19T16:21:27.539Z,7.32
2022-12-19T16:24:23.422Z,7.35
2022-12-19T16:27:30.277Z,7.47
2022-12-19T16:30:32.034Z,6.93
2022-12-19T16:33:28.819Z,7.35
2022-12-19T16:36:18.665Z,6.90
2022-12-19T16:39:08.196Z,7.60
2022-12-19T16:41:57.783Z,8.35
2022-12-19T16:44:49.299Z,7.93
2022-12-19T16:47:38.741Z,7.75
2022-12-19T16:50:31.249Z,7.45
2022-12-19T16:53:21.203Z,7.20
2022-12-19T16:56:22.444Z,7.72
2022-12-19T16:59:37.363Z,7.30
2022-12-19T17:02:44.820Z,7.35
2022-12-19T17:05:34.800Z,7.95
2022-12-19T17:08:25.347Z,7.32
2022-12-19T17:11:29.659Z,7.57
2022-12-19T17:14:22.814Z,7.03
2022-12-19T17:17:16.554Z,6.90
2022-12-19T17:20:06.245Z,7.60
2022-12-19T17:22:55.965Z,7.57
2022-12-19T17:25:46.113Z,7.13
2022-12-19T17:28:36.461Z,7.35
2022-12-19T17:31:29.620Z,8.05
2022-12-19T17:34:37.790Z,7.18
2022-12-19T17:37:27.630Z,7.28
2022-12-19T17:40:19.435Z,7.03
2022-12-19T17:43:09.223Z,7.80
2022-12-19T17:45:58.739Z,7.07
2022-12-19T17:48:52.201Z,7.80
2022-12-19T17:51:41.622Z,7.90
2022-12-19T17:54:31.737Z,7.13
2022-12-19T17:57:21.215Z,7.28
2022-12-19T18:00:11.781Z,7.13
2022-12-19T18:03:22.984Z,7.22
2022-12-19T18:06:12.679Z,7.90
2022-12-19T18:09:04.214Z,8.13
2022-12-19T18:11:54.354Z,7.20
2022-12-19T18:14:44.100Z,7.35
2022-12-19T18:17:33.693Z,7.75
2022-12-19T18:20:31.170Z,7.78
2022-12-19T18:23:24.609Z,7.50
2022-12-19T18:26:14.999Z,7.38
2022-12-19T18:29:05.338Z,7.00
2022-12-19T18:31:56.753Z,6.90
2022-12-19T18:34:46.326Z,6.93
2022-12-19T18:37:35.638Z,7.38
2022-12-19T18:40:31.121Z,7.55
2022-12-19T18:43:21.975Z,7.38
2022-12-19T18:46:16.020Z,7.30
2022-12-19T18:49:06.145Z,7.93
2022-12-19T18:51:56.540Z,7.47
2022-12-19T18:54:45.937Z,7.22
2022-12-19T18:57:35.339Z,7.18
2022-12-19T19:00:27.159Z,7.57
2022-12-19T19:03:20.047Z,7.18
2022-12-19T19:06:38.128Z,8.03
2022-12-19T19:09:27.654Z,8.13
2022-12-19T19:12:39.533Z,7.90
2022-12-19T19:15:30.882Z,7.78
2022-12-19T19:18:46.810Z,7.10
2022-12-19T19:21:37.119Z,7.30
2022-12-19T19:24:26.806Z,7.18
2022-12-19T19:27:16.430Z,6.90
2022-12-19T19:30:07.177Z,6.60
2022-12-19T19:33:01.272Z,7.55
2022-12-19T19:35:54.761Z,8.13
2022-12-19T19:38:47.862Z,7.55
2022-12-19T19:41:37.425Z,8.05
2022-12-19T19:44:26.907Z,7.72
2022-12-19T19:47:17.042Z,7.75
2022-12-19T19:50:08.326Z,7.35
2022-12-19T19:52:58.311Z,7.35
2022-12-19T19:55:58.752Z,6.45
2022-12-19T19:58:48.191Z,7.22
2022-12-19T20:01:37.770Z,7.25
2022-12-19T20:04:28.043Z,8.13
2022-12-19T20:07:18.557Z,7.85
2022-12-19T20:10:10.335Z,7.15
2022-12-19T20:12:59.663Z,7.75
2022-12-19T20:15:50.068Z,7.15
2022-12-19T20:18:41.579Z,7.72
2022-12-19T20:21:32.053Z,7.45
2022-12-19T20:24:21.441Z,7.75
2022-12-19T20:27:11.830Z,7.57
2022-12-19T20:30:01.223Z,7.47
2022-12-19T20:32:50.833Z,7.22
2022-12-19T20:35:40.223Z,7.18
2022-12-19T20:38:29.656Z,8.25
2022-12-19T20:41:19.719Z,7.68
2022-12-19T20:44:09.450Z,7.55
2022-12-19T20:46:59.270Z,7.57
2022-12-19T20:49:48.882Z,7.65
2022-12-19T20:52:38.143Z,7.85
2022-12-19T20:55:27.548Z,7.53
2022-12-19T20:58:17.128Z,8.00
2022-12-19T21:01:12.520Z,7.53
2022-12-19T21:04:02.062Z,6.97
2022-12-19T21:06:51.843Z,7.07
2022-12-19T21:09:45.737Z,7.53
2022-12-19T21:12:35.145Z,7.78
2022-12-19T21:15:24.826Z,7.28
2022-12-19T21:18:14.179Z,7.70
2022-12-19T21:21:04.038Z,7.85
2022-12-19T21:23:54.969Z,7.20
2022-12-19T21:26:44.401Z,6.43
2022-12-19T21:29:34.013Z,7.55
2022-12-19T21:32:23.528Z,7.20
2022-12-19T21:35:13.616Z,7.20
2022-12-19T21:38:03.467Z,7.90
2022-12-19T21:40:53.071Z,7.63
2022-12-19T21:43:42.412Z,7.22
2022-12-19T21:46:36.574Z,7.45
2022-12-19T21:49:26.087Z,7.82
2022-12-19T21:52:15.585Z,7.47
2022-12-19T21:55:06.295Z,6.82
2022-12-19T21:57:55.941Z,7.30
2022-12-19T22:00:45.311Z,7.75
2022-12-19T22:03:35.470Z,8.18
2022-12-19T22:06:28.292Z,6.97
2022-12-19T22:09:21.484Z,7.50
2022-12-19T22:12:14.015Z,7.47
2022-12-19T22:15:03.373Z,7.40
2022-12-19T22:17:52.760Z,7.20
2022-12-19T22:20:46.001Z,7.20
2022-12-19T22:23:35.447Z,7.40
2022-12-19T22:26:25.996Z,7.53
2022-12-19T22:29:17.206Z,7.55
2022-12-19T22:32:07.073Z,7.47
2022-12-19T22:34:56.696Z,7.57
2022-12-19T22:37:46.387Z,6.82
2022-12-19T22:40:36.103Z,7.20
2022-12-19T22:43:25.554Z,6.78
2022-12-19T22:46:17.663Z,6.78
2022-12-19T22:49:09.780Z,6.90
2022-12-19T22:51:59.471Z,6.85
2022-12-19T22:54:49.223Z,7.22
2022-12-19T22:57:38.813Z,7.03
2022-12-19T23:00:29.175Z,7.20
2022-12-19T23:03:18.955Z,7.07
2022-12-19T23:06:08.752Z,6.90
2022-12-19T23:08:58.805Z,6.63
2022-12-19T23:11:50.684Z,6.63
2022-12-19T23:14:39.886Z,6.68
2022-12-19T23:17:30.030Z,6.65
2022-12-19T23:20:19.624Z,6.72
2022-12-19T23:23:09.159Z,6.68
2022-12-19T23:25:58.552Z,7.03
2022-12-19T23:28:59.749Z,6.22
2022-12-19T23:31:49.113Z,7.10
2022-12-19T23:34:38.959Z,6.82
2022-12-19T23:37:28.276Z,6.80
2022-12-19T23:40:18.629Z,7.13
2022-12-19T23:43:07.957Z,6.75
2022-12-19T23:45:57.675Z,6.68
2022-12-19T23:48:47.574Z,7.15
2022-12-19T23:51:37.024Z,7.43
2022-12-19T23:54:26.543Z,6.68
2022-12-19T23:57:16.134Z,7.10
